sensor_id;sensor_type;location;lat;lon;timestamp;P1;durP1;ratioP1;P2;durP2;ratioP2
75785;SDS011;64402;44.708;37.644;2023-02-01T00:00:49;16.48;;;7.28;;
75785;SDS011;64402;44.708;37.644;2023-02-01T00:03:15;16.98;;;8.23;;
75785;SDS011;64402;44.708;37.644;2023-02-01T00:05:44;15.85;;;7.45;;
75785;SDS011;64402;44.708;37.644;2023-02-01T00:08:10;15.05;;;7.40;;
75785;SDS011;64402;44.708;37.644;2023-02-01T00:10:36;11.90;;;6.43;;
75785;SDS011;64402;44.708;37.644;2023-02-01T00:13:02;11.75;;;5.35;;
75785;SDS011;64402;44.708;37.644;2023-02-01T00:15:29;12.60;;;5.05;;
75785;SDS011;64402;44.708;37.644;2023-02-01T00:17:59;9.98;;;4.28;;
75785;SDS011;64402;44.708;37.644;2023-02-01T00:20:25;17.02;;;7.32;;
75785;SDS011;64402;44.708;37.644;2023-02-01T00:22:51;13.27;;;6.90;;
75785;SDS011;64402;44.708;37.644;2023-02-01T00:25:17;13.35;;;6.72;;
75785;SDS011;64402;44.708;37.644;2023-02-01T00:27:49;14.23;;;6.88;;
75785;SDS011;64402;44.708;37.644;2023-02-01T00:30:16;14.65;;;7.28;;
75785;SDS011;64402;44.708;37.644;2023-02-01T00:32:43;18.08;;;6.97;;
75785;SDS011;64402;44.708;37.644;2023-02-01T00:35:09;12.50;;;6.43;;
75785;SDS011;64402;44.708;37.644;2023-02-01T00:37:36;15.18;;;7.53;;
75785;SDS011;64402;44.708;37.644;2023-02-01T00:40:02;19.50;;;8.43;;
75785;SDS011;64402;44.708;37.644;2023-02-01T00:42:28;17.55;;;9.05;;
75785;SDS011;64402;44.708;37.644;2023-02-01T00:44:57;18.45;;;8.15;;
75785;SDS011;64402;44.708;37.644;2023-02-01T00:47:23;17.70;;;8.15;;
75785;SDS011;64402;44.708;37.644;2023-02-01T00:49:52;17.08;;;7.32;;
75785;SDS011;64402;44.708;37.644;2023-02-01T00:52:18;18.05;;;8.80;;
75785;SDS011;64402;44.708;37.644;2023-02-01T00:54:44;18.17;;;8.68;;
75785;SDS011;64402;44.708;37.644;2023-02-01T00:57:10;15.35;;;7.45;;
75785;SDS011;64402;44.708;37.644;2023-02-01T00:59:37;15.32;;;7.65;;
75785;SDS011;64402;44.708;37.644;2023-02-01T01:02:03;14.55;;;6.40;;
75785;SDS011;64402;44.708;37.644;2023-02-01T01:04:29;17.65;;;6.60;;
75785;SDS011;64402;44.708;37.644;2023-02-01T01:06:55;13.30;;;5.07;;
75785;SDS011;64402;44.708;37.644;2023-02-01T01:09:21;17.20;;;7.00;;
75785;SDS011;64402;44.708;37.644;2023-02-01T01:11:48;16.40;;;7.90;;
75785;SDS011;64402;44.708;37.644;2023-02-01T01:14:16;13.25;;;6.13;;
75785;SDS011;64402;44.708;37.644;2023-02-01T01:16:42;14.25;;;5.57;;
75785;SDS011;64402;44.708;37.644;2023-02-01T01:19:08;13.15;;;5.60;;
75785;SDS011;64402;44.708;37.644;2023-02-01T01:21:35;12.82;;;4.70;;
75785;SDS011;64402;44.708;37.644;2023-02-01T01:24:01;15.85;;;7.28;;
75785;SDS011;64402;44.708;37.644;2023-02-01T01:26:28;20.27;;;8.43;;
75785;SDS011;64402;44.708;37.644;2023-02-01T01:28:55;17.85;;;8.15;;
75785;SDS011;64402;44.708;37.644;2023-02-01T01:31:23;16.23;;;6.90;;
75785;SDS011;64402;44.708;37.644;2023-02-01T01:33:50;15.15;;;7.63;;
75785;SDS011;64402;44.708;37.644;2023-02-01T01:36:18;20.45;;;8.50;;
75785;SDS011;64402;44.708;37.644;2023-02-01T01:38:44;16.58;;;7.93;;
75785;SDS011;64402;44.708;37.644;2023-02-01T01:41:15;14.75;;;7.28;;
75785;SDS011;64402;44.708;37.644;2023-02-01T01:46:24;11.52;;;5.50;;
75785;SDS011;64402;44.708;37.644;2023-02-01T01:49:01;11.75;;;4.68;;
75785;SDS011;64402;44.708;37.644;2023-02-01T01:51:46;10.25;;;4.40;;
75785;SDS011;64402;44.708;37.644;2023-02-01T01:54:23;9.35;;;3.95;;
75785;SDS011;64402;44.708;37.644;2023-02-01T01:56:55;8.48;;;3.47;;
75785;SDS011;64402;44.708;37.644;2023-02-01T01:59:23;14.45;;;6.57;;
75785;SDS011;64402;44.708;37.644;2023-02-01T02:01:51;14.68;;;6.50;;
75785;SDS011;64402;44.708;37.644;2023-02-01T02:04:18;11.38;;;5.00;;
75785;SDS011;64402;44.708;37.644;2023-02-01T02:06:50;10.55;;;4.82;;
75785;SDS011;64402;44.708;37.644;2023-02-01T02:09:22;11.00;;;5.00;;
75785;SDS011;64402;44.708;37.644;2023-02-01T02:11:49;10.05;;;4.20;;
75785;SDS011;64402;44.708;37.644;2023-02-01T02:14:16;11.35;;;4.32;;
75785;SDS011;64402;44.708;37.644;2023-02-01T02:17:05;11.90;;;4.03;;
75785;SDS011;64402;44.708;37.644;2023-02-01T02:25:29;11.32;;;5.85;;
75785;SDS011;64402;44.708;37.644;2023-02-01T02:30:53;15.85;;;7.32;;
75785;SDS011;64402;44.708;37.644;2023-02-01T02:42:07;8.60;;;3.33;;
75785;SDS011;64402;44.708;37.644;2023-02-01T02:48:17;9.20;;;3.85;;
75785;SDS011;64402;44.708;37.644;2023-02-01T02:50:49;11.07;;;4.97;;
75785;SDS011;64402;44.708;37.644;2023-02-01T02:53:48;12.55;;;5.45;;
75785;SDS011;64402;44.708;37.644;2023-02-01T02:56:44;12.68;;;5.80;;
75785;SDS011;64402;44.708;37.644;2023-02-01T02:59:29;15.35;;;5.97;;
75785;SDS011;64402;44.708;37.644;2023-02-01T03:02:18;11.73;;;5.60;;
75785;SDS011;64402;44.708;37.644;2023-02-01T03:05:05;13.98;;;5.43;;
75785;SDS011;64402;44.708;37.644;2023-02-01T03:10:11;13.75;;;5.10;;
75785;SDS011;64402;44.708;37.644;2023-02-01T03:12:47;13.02;;;5.45;;
75785;SDS011;64402;44.708;37.644;2023-02-01T03:18:22;15.75;;;5.38;;
75785;SDS011;64402;44.708;37.644;2023-02-01T03:20:58;12.60;;;5.28;;
75785;SDS011;64402;44.708;37.644;2023-02-01T03:23:30;13.65;;;6.05;;
75785;SDS011;64402;44.708;37.644;2023-02-01T03:25:59;11.50;;;5.70;;
75785;SDS011;64402;44.708;37.644;2023-02-01T03:28:29;13.77;;;5.07;;
75785;SDS011;64402;44.708;37.644;2023-02-01T03:30:58;12.95;;;5.47;;
75785;SDS011;64402;44.708;37.644;2023-02-01T03:33:25;12.95;;;5.93;;
75785;SDS011;64402;44.708;37.644;2023-02-01T03:38:59;18.35;;;8.13;;
75785;SDS011;64402;44.708;37.644;2023-02-01T03:41:44;14.70;;;5.90;;
75785;SDS011;64402;44.708;37.644;2023-02-01T03:44:21;13.55;;;5.40;;
75785;SDS011;64402;44.708;37.644;2023-02-01T03:46:52;14.57;;;5.78;;
75785;SDS011;64402;44.708;37.644;2023-02-01T03:49:26;14.90;;;5.78;;
75785;SDS011;64402;44.708;37.644;2023-02-01T03:51:56;12.77;;;5.60;;
75785;SDS011;64402;44.708;37.644;2023-02-01T03:54:25;12.68;;;5.47;;
75785;SDS011;64402;44.708;37.644;2023-02-01T03:56:55;13.32;;;5.47;;
75785;SDS011;64402;44.708;37.644;2023-02-01T03:59:23;12.50;;;6.00;;
75785;SDS011;64402;44.708;37.644;2023-02-01T04:01:49;12.43;;;5.00;;
75785;SDS011;64402;44.708;37.644;2023-02-01T04:04:16;10.25;;;4.40;;
75785;SDS011;64402;44.708;37.644;2023-02-01T04:06:46;10.65;;;4.10;;
75785;SDS011;64402;44.708;37.644;2023-02-01T04:09:12;17.17;;;7.10;;
75785;SDS011;64402;44.708;37.644;2023-02-01T04:11:39;15.15;;;5.93;;
75785;SDS011;64402;44.708;37.644;2023-02-01T04:14:05;12.18;;;5.70;;
75785;SDS011;64402;44.708;37.644;2023-02-01T04:16:32;14.75;;;6.45;;
75785;SDS011;64402;44.708;37.644;2023-02-01T04:18:58;14.63;;;5.88;;
75785;SDS011;64402;44.708;37.644;2023-02-01T04:21:25;14.23;;;6.60;;
75785;SDS011;64402;44.708;37.644;2023-02-01T04:23:52;34.78;;;19.90;;
75785;SDS011;64402;44.708;37.644;2023-02-01T04:26:20;18.33;;;9.90;;
75785;SDS011;64402;44.708;37.644;2023-02-01T04:28:46;12.00;;;5.60;;
75785;SDS011;64402;44.708;37.644;2023-02-01T04:31:14;8.25;;;2.95;;
75785;SDS011;64402;44.708;37.644;2023-02-01T04:33:41;5.82;;;2.25;;
75785;SDS011;64402;44.708;37.644;2023-02-01T04:36:07;5.43;;;1.75;;
75785;SDS011;64402;44.708;37.644;2023-02-01T04:38:34;5.35;;;1.90;;
75785;SDS011;64402;44.708;37.644;2023-02-01T04:41:00;9.88;;;3.58;;
75785;SDS011;64402;44.708;37.644;2023-02-01T04:43:27;6.15;;;2.50;;
75785;SDS011;64402;44.708;37.644;2023-02-01T04:45:53;9.00;;;4.25;;
75785;SDS011;64402;44.708;37.644;2023-02-01T04:48:19;11.88;;;5.15;;
75785;SDS011;64402;44.708;37.644;2023-02-01T04:50:46;15.05;;;5.35;;
75785;SDS011;64402;44.708;37.644;2023-02-01T04:53:14;11.60;;;5.22;;
75785;SDS011;64402;44.708;37.644;2023-02-01T04:55:41;9.32;;;4.22;;
75785;SDS011;64402;44.708;37.644;2023-02-01T04:58:08;13.48;;;4.80;;
75785;SDS011;64402;44.708;37.644;2023-02-01T05:00:35;19.35;;;5.70;;
75785;SDS011;64402;44.708;37.644;2023-02-01T05:03:02;12.57;;;5.07;;
75785;SDS011;64402;44.708;37.644;2023-02-01T05:05:28;19.35;;;5.32;;
75785;SDS011;64402;44.708;37.644;2023-02-01T05:07:55;12.82;;;5.55;;
75785;SDS011;64402;44.708;37.644;2023-02-01T05:10:21;17.27;;;5.95;;
75785;SDS011;64402;44.708;37.644;2023-02-01T05:12:47;14.82;;;5.05;;
75785;SDS011;64402;44.708;37.644;2023-02-01T05:15:32;15.85;;;5.63;;
75785;SDS011;64402;44.708;37.644;2023-02-01T05:17:59;12.82;;;4.63;;
75785;SDS011;64402;44.708;37.644;2023-02-01T05:20:25;17.65;;;5.22;;
75785;SDS011;64402;44.708;37.644;2023-02-01T05:22:51;16.42;;;5.53;;
75785;SDS011;64402;44.708;37.644;2023-02-01T05:25:17;14.73;;;6.03;;
75785;SDS011;64402;44.708;37.644;2023-02-01T05:27:44;13.43;;;6.13;;
75785;SDS011;64402;44.708;37.644;2023-02-01T05:30:10;17.17;;;5.22;;
75785;SDS011;64402;44.708;37.644;2023-02-01T05:32:37;14.10;;;5.47;;
75785;SDS011;64402;44.708;37.644;2023-02-01T05:35:03;14.98;;;5.78;;
75785;SDS011;64402;44.708;37.644;2023-02-01T05:37:30;17.50;;;7.25;;
75785;SDS011;64402;44.708;37.644;2023-02-01T05:39:56;15.27;;;6.82;;
75785;SDS011;64402;44.708;37.644;2023-02-01T05:42:22;19.90;;;6.85;;
75785;SDS011;64402;44.708;37.644;2023-02-01T05:44:48;18.75;;;6.07;;
75785;SDS011;64402;44.708;37.644;2023-02-01T05:47:14;11.95;;;5.13;;
75785;SDS011;64402;44.708;37.644;2023-02-01T05:49:41;10.60;;;4.45;;
75785;SDS011;64402;44.708;37.644;2023-02-01T05:52:07;14.10;;;4.80;;
75785;SDS011;64402;44.708;37.644;2023-02-01T05:54:33;10.38;;;3.90;;
75785;SDS011;64402;44.708;37.644;2023-02-01T05:57:00;12.38;;;4.68;;
75785;SDS011;64402;44.708;37.644;2023-02-01T05:59:26;13.07;;;4.85;;
75785;SDS011;64402;44.708;37.644;2023-02-01T06:01:52;15.07;;;6.65;;
75785;SDS011;64402;44.708;37.644;2023-02-01T06:04:18;18.52;;;6.60;;
75785;SDS011;64402;44.708;37.644;2023-02-01T06:06:44;17.17;;;6.40;;
75785;SDS011;64402;44.708;37.644;2023-02-01T06:09:10;15.40;;;6.43;;
75785;SDS011;64402;44.708;37.644;2023-02-01T06:11:37;14.10;;;6.70;;
75785;SDS011;64402;44.708;37.644;2023-02-01T06:14:03;18.40;;;6.80;;
75785;SDS011;64402;44.708;37.644;2023-02-01T06:16:29;19.55;;;8.00;;
75785;SDS011;64402;44.708;37.644;2023-02-01T06:18:57;20.23;;;8.38;;
75785;SDS011;64402;44.708;37.644;2023-02-01T06:21:23;16.88;;;7.75;;
75785;SDS011;64402;44.708;37.644;2023-02-01T06:23:50;15.30;;;7.43;;
75785;SDS011;64402;44.708;37.644;2023-02-01T06:26:17;9.82;;;4.60;;
75785;SDS011;64402;44.708;37.644;2023-02-01T06:28:43;10.18;;;3.85;;
75785;SDS011;64402;44.708;37.644;2023-02-01T06:31:10;9.68;;;4.22;;
75785;SDS011;64402;44.708;37.644;2023-02-01T06:33:37;8.45;;;3.88;;
75785;SDS011;64402;44.708;37.644;2023-02-01T06:36:05;10.90;;;3.85;;
75785;SDS011;64402;44.708;37.644;2023-02-01T06:38:32;10.05;;;4.20;;
75785;SDS011;64402;44.708;37.644;2023-02-01T06:41:02;12.23;;;4.75;;
75785;SDS011;64402;44.708;37.644;2023-02-01T06:43:29;20.20;;;7.97;;
75785;SDS011;64402;44.708;37.644;2023-02-01T06:45:59;43.38;;;16.45;;
75785;SDS011;64402;44.708;37.644;2023-02-01T06:48:26;42.80;;;18.85;;
75785;SDS011;64402;44.708;37.644;2023-02-01T06:50:53;37.70;;;14.30;;
75785;SDS011;64402;44.708;37.644;2023-02-01T06:53:19;26.15;;;10.85;;
75785;SDS011;64402;44.708;37.644;2023-02-01T06:55:55;23.88;;;11.63;;
75785;SDS011;64402;44.708;37.644;2023-02-01T06:58:27;23.27;;;9.57;;
75785;SDS011;64402;44.708;37.644;2023-02-01T07:00:58;18.58;;;9.73;;
75785;SDS011;64402;44.708;37.644;2023-02-01T07:03:29;19.13;;;7.78;;
75785;SDS011;64402;44.708;37.644;2023-02-01T07:05:56;12.52;;;5.00;;
75785;SDS011;64402;44.708;37.644;2023-02-01T07:08:29;13.70;;;6.40;;
75785;SDS011;64402;44.708;37.644;2023-02-01T07:11:00;11.35;;;4.65;;
75785;SDS011;64402;44.708;37.644;2023-02-01T07:13:30;11.23;;;4.85;;
75785;SDS011;64402;44.708;37.644;2023-02-01T07:15:57;11.07;;;3.80;;
75785;SDS011;64402;44.708;37.644;2023-02-01T07:18:26;7.72;;;3.45;;
75785;SDS011;64402;44.708;37.644;2023-02-01T07:20:53;8.27;;;2.90;;
75785;SDS011;64402;44.708;37.644;2023-02-01T07:23:20;6.05;;;2.65;;
75785;SDS011;64402;44.708;37.644;2023-02-01T07:25:46;8.75;;;2.60;;
75785;SDS011;64402;44.708;37.644;2023-02-01T07:28:12;5.85;;;2.45;;
75785;SDS011;64402;44.708;37.644;2023-02-01T07:30:39;4.53;;;1.80;;
75785;SDS011;64402;44.708;37.644;2023-02-01T07:33:06;5.25;;;1.92;;
75785;SDS011;64402;44.708;37.644;2023-02-01T07:35:32;6.90;;;2.40;;
75785;SDS011;64402;44.708;37.644;2023-02-01T07:37:58;4.90;;;2.00;;
75785;SDS011;64402;44.708;37.644;2023-02-01T07:40:24;4.43;;;1.80;;
75785;SDS011;64402;44.708;37.644;2023-02-01T07:42:54;5.68;;;2.20;;
75785;SDS011;64402;44.708;37.644;2023-02-01T07:45:21;4.85;;;2.00;;
75785;SDS011;64402;44.708;37.644;2023-02-01T07:47:48;5.10;;;2.10;;
75785;SDS011;64402;44.708;37.644;2023-02-01T07:50:14;5.85;;;2.20;;
75785;SDS011;64402;44.708;37.644;2023-02-01T07:52:41;6.65;;;2.00;;
75785;SDS011;64402;44.708;37.644;2023-02-01T07:55:07;5.82;;;2.00;;
75785;SDS011;64402;44.708;37.644;2023-02-01T07:57:34;7.20;;;2.33;;
75785;SDS011;64402;44.708;37.644;2023-02-01T08:00:00;6.10;;;2.38;;
75785;SDS011;64402;44.708;37.644;2023-02-01T08:02:45;5.32;;;1.83;;
75785;SDS011;64402;44.708;37.644;2023-02-01T08:05:11;6.38;;;2.10;;
75785;SDS011;64402;44.708;37.644;2023-02-01T08:07:37;4.90;;;2.13;;
75785;SDS011;64402;44.708;37.644;2023-02-01T08:10:03;9.05;;;2.10;;
75785;SDS011;64402;44.708;37.644;2023-02-01T08:12:32;5.38;;;2.20;;
75785;SDS011;64402;44.708;37.644;2023-02-01T08:14:58;6.47;;;2.28;;
75785;SDS011;64402;44.708;37.644;2023-02-01T08:17:24;5.45;;;2.13;;
75785;SDS011;64402;44.708;37.644;2023-02-01T08:19:51;5.47;;;2.00;;
75785;SDS011;64402;44.708;37.644;2023-02-01T08:22:17;5.80;;;2.05;;
75785;SDS011;64402;44.708;37.644;2023-02-01T08:24:44;5.63;;;2.08;;
75785;SDS011;64402;44.708;37.644;2023-02-01T08:27:13;7.30;;;2.00;;
75785;SDS011;64402;44.708;37.644;2023-02-01T08:29:39;5.07;;;1.80;;
75785;SDS011;64402;44.708;37.644;2023-02-01T08:32:06;5.82;;;1.92;;
75785;SDS011;64402;44.708;37.644;2023-02-01T08:34:33;4.53;;;1.70;;
75785;SDS011;64402;44.708;37.644;2023-02-01T08:36:59;4.10;;;1.52;;
75785;SDS011;64402;44.708;37.644;2023-02-01T08:39:25;4.75;;;1.67;;
75785;SDS011;64402;44.708;37.644;2023-02-01T08:41:52;5.90;;;1.70;;
75785;SDS011;64402;44.708;37.644;2023-02-01T08:44:36;6.03;;;1.75;;
75785;SDS011;64402;44.708;37.644;2023-02-01T08:47:02;4.60;;;1.80;;
75785;SDS011;64402;44.708;37.644;2023-02-01T08:49:29;4.43;;;1.75;;
75785;SDS011;64402;44.708;37.644;2023-02-01T08:51:55;4.70;;;1.83;;
75785;SDS011;64402;44.708;37.644;2023-02-01T08:54:21;4.93;;;1.80;;
75785;SDS011;64402;44.708;37.644;2023-02-01T08:56:47;5.60;;;1.92;;
75785;SDS011;64402;44.708;37.644;2023-02-01T08:59:14;4.40;;;1.60;;
75785;SDS011;64402;44.708;37.644;2023-02-01T09:01:40;4.65;;;1.60;;
75785;SDS011;64402;44.708;37.644;2023-02-01T09:04:06;5.22;;;1.70;;
75785;SDS011;64402;44.708;37.644;2023-02-01T09:06:32;5.05;;;1.98;;
75785;SDS011;64402;44.708;37.644;2023-02-01T09:08:58;5.03;;;2.05;;
75785;SDS011;64402;44.708;37.644;2023-02-01T09:11:24;15.98;;;6.30;;
75785;SDS011;64402;44.708;37.644;2023-02-01T09:13:51;8.65;;;4.00;;
75785;SDS011;64402;44.708;37.644;2023-02-01T09:16:17;7.57;;;2.53;;
75785;SDS011;64402;44.708;37.644;2023-02-01T09:18:43;4.75;;;2.05;;
75785;SDS011;64402;44.708;37.644;2023-02-01T09:21:10;5.43;;;2.17;;
75785;SDS011;64402;44.708;37.644;2023-02-01T09:23:36;6.07;;;2.40;;
75785;SDS011;64402;44.708;37.644;2023-02-01T09:26:03;5.97;;;1.90;;
75785;SDS011;64402;44.708;37.644;2023-02-01T09:28:30;5.13;;;1.80;;
75785;SDS011;64402;44.708;37.644;2023-02-01T09:30:57;3.70;;;1.50;;
75785;SDS011;64402;44.708;37.644;2023-02-01T09:36:01;4.90;;;1.70;;
75785;SDS011;64402;44.708;37.644;2023-02-01T09:38:32;5.43;;;1.90;;
75785;SDS011;64402;44.708;37.644;2023-02-01T09:40:59;4.72;;;1.42;;
75785;SDS011;64402;44.708;37.644;2023-02-01T09:48:37;4.80;;;1.90;;
75785;SDS011;64402;44.708;37.644;2023-02-01T09:51:06;4.45;;;1.75;;
75785;SDS011;64402;44.708;37.644;2023-02-01T09:56:21;5.97;;;2.10;;
75785;SDS011;64402;44.708;37.644;2023-02-01T10:01:38;5.25;;;2.00;;
75785;SDS011;64402;44.708;37.644;2023-02-01T10:04:06;4.55;;;1.75;;
75785;SDS011;64402;44.708;37.644;2023-02-01T10:06:51;4.78;;;2.00;;
75785;SDS011;64402;44.708;37.644;2023-02-01T10:09:52;4.25;;;1.50;;
75785;SDS011;64402;44.708;37.644;2023-02-01T10:26:36;4.00;;;1.70;;
75785;SDS011;64402;44.708;37.644;2023-02-01T10:29:07;5.10;;;1.90;;
75785;SDS011;64402;44.708;37.644;2023-02-01T10:31:42;4.82;;;1.52;;
75785;SDS011;64402;44.708;37.644;2023-02-01T10:34:22;4.07;;;1.50;;
75785;SDS011;64402;44.708;37.644;2023-02-01T10:36:57;5.95;;;1.70;;
75785;SDS011;64402;44.708;37.644;2023-02-01T10:39:27;4.30;;;1.70;;
75785;SDS011;64402;44.708;37.644;2023-02-01T10:41:54;5.63;;;2.05;;
75785;SDS011;64402;44.708;37.644;2023-02-01T10:44:23;5.53;;;1.88;;
75785;SDS011;64402;44.708;37.644;2023-02-01T10:46:51;4.40;;;1.50;;
75785;SDS011;64402;44.708;37.644;2023-02-01T10:49:19;3.63;;;1.30;;
75785;SDS011;64402;44.708;37.644;2023-02-01T10:54:32;4.20;;;1.50;;
75785;SDS011;64402;44.708;37.644;2023-02-01T10:57:00;4.10;;;1.50;;
75785;SDS011;64402;44.708;37.644;2023-02-01T10:59:27;3.92;;;1.38;;
75785;SDS011;64402;44.708;37.644;2023-02-01T11:01:58;3.17;;;1.20;;
75785;SDS011;64402;44.708;37.644;2023-02-01T11:04:28;4.45;;;1.40;;
75785;SDS011;64402;44.708;37.644;2023-02-01T11:09:48;7.15;;;1.88;;
75785;SDS011;64402;44.708;37.644;2023-02-01T11:12:41;4.90;;;1.80;;
75785;SDS011;64402;44.708;37.644;2023-02-01T11:15:14;6.00;;;1.80;;
75785;SDS011;64402;44.708;37.644;2023-02-01T11:17:47;4.22;;;1.63;;
75785;SDS011;64402;44.708;37.644;2023-02-01T11:20:18;9.90;;;3.17;;
75785;SDS011;64402;44.708;37.644;2023-02-01T11:22:53;6.03;;;1.60;;
75785;SDS011;64402;44.708;37.644;2023-02-01T11:25:21;4.28;;;1.55;;
75785;SDS011;64402;44.708;37.644;2023-02-01T11:27:49;4.20;;;1.70;;
75785;SDS011;64402;44.708;37.644;2023-02-01T11:30:33;8.57;;;3.45;;
75785;SDS011;64402;44.708;37.644;2023-02-01T11:33:03;3.65;;;1.50;;
75785;SDS011;64402;44.708;37.644;2023-02-01T11:35:30;3.83;;;1.40;;
75785;SDS011;64402;44.708;37.644;2023-02-01T11:37:58;3.25;;;1.45;;
75785;SDS011;64402;44.708;37.644;2023-02-01T11:43:04;4.72;;;1.55;;
75785;SDS011;64402;44.708;37.644;2023-02-01T11:45:42;4.43;;;1.50;;
75785;SDS011;64402;44.708;37.644;2023-02-01T11:48:23;5.25;;;1.63;;
75785;SDS011;64402;44.708;37.644;2023-02-01T11:50:54;5.80;;;2.55;;
75785;SDS011;64402;44.708;37.644;2023-02-01T11:53:45;7.15;;;2.85;;
75785;SDS011;64402;44.708;37.644;2023-02-01T11:56:30;7.72;;;3.13;;
75785;SDS011;64402;44.708;37.644;2023-02-01T12:05:45;9.57;;;3.88;;
75785;SDS011;64402;44.708;37.644;2023-02-01T12:31:16;14.80;;;7.55;;
75785;SDS011;64402;44.708;37.644;2023-02-01T12:47:32;16.95;;;8.23;;
75785;SDS011;64402;44.708;37.644;2023-02-01T12:50:06;16.73;;;7.93;;
75785;SDS011;64402;44.708;37.644;2023-02-01T12:52:47;17.05;;;7.65;;
75785;SDS011;64402;44.708;37.644;2023-02-01T12:55:23;18.00;;;8.60;;
75785;SDS011;64402;44.708;37.644;2023-02-01T12:58:12;14.98;;;7.30;;
75785;SDS011;64402;44.708;37.644;2023-02-01T13:00:57;20.85;;;7.82;;
75785;SDS011;64402;44.708;37.644;2023-02-01T13:06:02;20.48;;;7.38;;
75785;SDS011;64402;44.708;37.644;2023-02-01T13:11:34;15.48;;;7.38;;
75785;SDS011;64402;44.708;37.644;2023-02-01T13:19:20;12.52;;;7.10;;
75785;SDS011;64402;44.708;37.644;2023-02-01T13:21:50;18.83;;;9.27;;
75785;SDS011;64402;44.708;37.644;2023-02-01T13:27:02;19.17;;;10.82;;
75785;SDS011;64402;44.708;37.644;2023-02-01T13:29:28;15.80;;;8.70;;
75785;SDS011;64402;44.708;37.644;2023-02-01T13:42:54;15.88;;;8.50;;
75785;SDS011;64402;44.708;37.644;2023-02-01T13:45:24;17.83;;;8.38;;
75785;SDS011;64402;44.708;37.644;2023-02-01T13:47:54;20.70;;;8.75;;
75785;SDS011;64402;44.708;37.644;2023-02-01T13:53:04;16.65;;;8.32;;
75785;SDS011;64402;44.708;37.644;2023-02-01T13:55:43;17.55;;;7.72;;
75785;SDS011;64402;44.708;37.644;2023-02-01T14:00:48;17.35;;;8.95;;
75785;SDS011;64402;44.708;37.644;2023-02-01T14:03:22;17.50;;;8.15;;
75785;SDS011;64402;44.708;37.644;2023-02-01T14:06:16;19.30;;;8.52;;
75785;SDS011;64402;44.708;37.644;2023-02-01T14:09:09;19.58;;;9.80;;
75785;SDS011;64402;44.708;37.644;2023-02-01T14:19:35;15.70;;;7.65;;
75785;SDS011;64402;44.708;37.644;2023-02-01T14:24:40;14.43;;;7.75;;
75785;SDS011;64402;44.708;37.644;2023-02-01T14:27:16;18.42;;;8.60;;
75785;SDS011;64402;44.708;37.644;2023-02-01T14:29:59;15.48;;;8.38;;
75785;SDS011;64402;44.708;37.644;2023-02-01T14:32:37;15.70;;;7.45;;
75785;SDS011;64402;44.708;37.644;2023-02-01T14:35:07;16.30;;;9.43;;
75785;SDS011;64402;44.708;37.644;2023-02-01T14:37:43;16.60;;;8.50;;
75785;SDS011;64402;44.708;37.644;2023-02-01T14:47:47;19.95;;;8.52;;
75785;SDS011;64402;44.708;37.644;2023-02-01T14:50:20;19.25;;;9.30;;
75785;SDS011;64402;44.708;37.644;2023-02-01T14:53:36;17.55;;;9.52;;
75785;SDS011;64402;44.708;37.644;2023-02-01T14:58:06;19.60;;;9.50;;
75785;SDS011;64402;44.708;37.644;2023-02-01T15:00:46;18.67;;;8.88;;
75785;SDS011;64402;44.708;37.644;2023-02-01T15:06:02;19.50;;;8.93;;
75785;SDS011;64402;44.708;37.644;2023-02-01T15:08:35;17.13;;;7.85;;
75785;SDS011;64402;44.708;37.644;2023-02-01T15:11:12;19.88;;;8.15;;
75785;SDS011;64402;44.708;37.644;2023-02-01T15:13:47;18.42;;;7.75;;
75785;SDS011;64402;44.708;37.644;2023-02-01T15:16:16;16.70;;;8.18;;
75785;SDS011;64402;44.708;37.644;2023-02-01T15:18:43;16.80;;;8.23;;
75785;SDS011;64402;44.708;37.644;2023-02-01T15:21:20;22.25;;;8.77;;
75785;SDS011;64402;44.708;37.644;2023-02-01T15:23:48;19.77;;;9.30;;
75785;SDS011;64402;44.708;37.644;2023-02-01T15:26:26;19.90;;;9.73;;
75785;SDS011;64402;44.708;37.644;2023-02-01T15:28:53;22.33;;;10.20;;
75785;SDS011;64402;44.708;37.644;2023-02-01T15:31:38;30.88;;;10.80;;
75785;SDS011;64402;44.708;37.644;2023-02-01T15:34:06;22.35;;;9.65;;
75785;SDS011;64402;44.708;37.644;2023-02-01T15:36:33;25.85;;;11.73;;
75785;SDS011;64402;44.708;37.644;2023-02-01T15:39:22;26.83;;;11.65;;
75785;SDS011;64402;44.708;37.644;2023-02-01T15:41:56;25.60;;;12.18;;
75785;SDS011;64402;44.708;37.644;2023-02-01T15:44:34;26.33;;;12.73;;
75785;SDS011;64402;44.708;37.644;2023-02-01T15:47:29;24.95;;;11.45;;
75785;SDS011;64402;44.708;37.644;2023-02-01T15:49:59;22.38;;;10.60;;
75785;SDS011;64402;44.708;37.644;2023-02-01T15:52:30;20.25;;;9.35;;
75785;SDS011;64402;44.708;37.644;2023-02-01T15:55:04;25.08;;;9.65;;
75785;SDS011;64402;44.708;37.644;2023-02-01T15:57:45;19.17;;;8.70;;
75785;SDS011;64402;44.708;37.644;2023-02-01T16:00:21;19.05;;;8.82;;
75785;SDS011;64402;44.708;37.644;2023-02-01T16:03:02;16.90;;;8.18;;
75785;SDS011;64402;44.708;37.644;2023-02-01T16:10:42;17.92;;;7.82;;
75785;SDS011;64402;44.708;37.644;2023-02-01T16:13:11;22.05;;;8.38;;
75785;SDS011;64402;44.708;37.644;2023-02-01T16:15:38;20.45;;;8.57;;
75785;SDS011;64402;44.708;37.644;2023-02-01T16:18:04;24.38;;;11.57;;
75785;SDS011;64402;44.708;37.644;2023-02-01T16:20:34;21.27;;;9.18;;
75785;SDS011;64402;44.708;37.644;2023-02-01T16:23:02;18.67;;;8.27;;
75785;SDS011;64402;44.708;37.644;2023-02-01T16:25:29;17.35;;;8.45;;
75785;SDS011;64402;44.708;37.644;2023-02-01T16:27:56;17.00;;;8.45;;
75785;SDS011;64402;44.708;37.644;2023-02-01T16:30:22;19.58;;;8.60;;
75785;SDS011;64402;44.708;37.644;2023-02-01T16:32:53;16.75;;;7.75;;
75785;SDS011;64402;44.708;37.644;2023-02-01T16:35:24;17.00;;;8.63;;
75785;SDS011;64402;44.708;37.644;2023-02-01T16:40:24;18.70;;;9.68;;
75785;SDS011;64402;44.708;37.644;2023-02-01T16:42:51;18.95;;;8.85;;
75785;SDS011;64402;44.708;37.644;2023-02-01T16:45:20;17.75;;;8.82;;
75785;SDS011;64402;44.708;37.644;2023-02-01T16:47:48;17.90;;;8.43;;
75785;SDS011;64402;44.708;37.644;2023-02-01T16:50:18;15.13;;;6.68;;
75785;SDS011;64402;44.708;37.644;2023-02-01T16:52:47;19.20;;;8.30;;
75785;SDS011;64402;44.708;37.644;2023-02-01T16:55:14;19.50;;;8.82;;
75785;SDS011;64402;44.708;37.644;2023-02-01T16:57:41;23.73;;;10.25;;
75785;SDS011;64402;44.708;37.644;2023-02-01T17:00:09;24.38;;;8.27;;
75785;SDS011;64402;44.708;37.644;2023-02-01T17:02:37;21.75;;;9.20;;
75785;SDS011;64402;44.708;37.644;2023-02-01T17:05:04;21.63;;;8.88;;
75785;SDS011;64402;44.708;37.644;2023-02-01T17:07:31;21.35;;;8.98;;
75785;SDS011;64402;44.708;37.644;2023-02-01T17:09:57;18.55;;;9.15;;
75785;SDS011;64402;44.708;37.644;2023-02-01T17:12:25;18.35;;;9.38;;
75785;SDS011;64402;44.708;37.644;2023-02-01T17:14:53;18.45;;;9.45;;
75785;SDS011;64402;44.708;37.644;2023-02-01T17:17:20;19.65;;;9.32;;
75785;SDS011;64402;44.708;37.644;2023-02-01T17:19:47;20.67;;;10.00;;
75785;SDS011;64402;44.708;37.644;2023-02-01T17:22:19;19.90;;;9.38;;
75785;SDS011;64402;44.708;37.644;2023-02-01T17:24:46;19.42;;;9.07;;
75785;SDS011;64402;44.708;37.644;2023-02-01T17:27:12;20.08;;;9.23;;
75785;SDS011;64402;44.708;37.644;2023-02-01T17:29:39;23.95;;;9.57;;
75785;SDS011;64402;44.708;37.644;2023-02-01T17:32:07;24.15;;;10.38;;
75785;SDS011;64402;44.708;37.644;2023-02-01T17:34:42;20.80;;;8.85;;